Terminal Aerodrome Forecast
Issued by NWS

Home | Current Version | Previous Version | Text Only | Print | Product List | Glossary On
Versions: 1 2 3 4 5 6 7 8 9 10 11 12 13 14 15 16 17 18 19 20
214
FTUS41 KPBZ 051739
TAFHLG
TAF
KHLG 051739Z 0518/0618 33009KT P6SM VCSH SCT020 BKN040
      TEMPO 0518/0522 -SHRA BKN015
     FM052200 36007KT P6SM VCSH OVC035=

USA.gov is the U.S. government's official web portal to all federal, state and local government web resources and services.